createdAt,value
2024-05-09T00:00:36.101Z,76.13
2024-05-09T00:03:10.601Z,75.82
2024-05-09T00:05:40.323Z,75.66
2024-05-09T00:08:08.481Z,75.60
2024-05-09T00:10:37.822Z,75.39
2024-05-09T00:13:06.979Z,75.57
2024-05-09T00:15:34.668Z,75.42
2024-05-09T00:18:02.484Z,75.48
2024-05-09T00:20:37.374Z,75.34
2024-05-09T00:23:07.865Z,75.70
2024-05-09T00:25:35.461Z,75.55
2024-05-09T00:28:02.569Z,75.46
2024-05-09T00:30:34.371Z,75.22
2024-05-09T00:33:04.870Z,75.31
2024-05-09T00:35:32.948Z,75.21
2024-05-09T00:37:59.911Z,76.00
2024-05-09T00:40:37.295Z,75.68
2024-05-09T00:43:06.948Z,75.55
2024-05-09T00:45:36.686Z,75.24
2024-05-09T00:48:07.482Z,76.09
2024-05-09T00:50:38.041Z,75.55
2024-05-09T00:53:07.945Z,75.03
2024-05-09T00:55:36.608Z,75.15
2024-05-09T00:58:04.969Z,76.04
2024-05-09T01:00:38.418Z,75.56
2024-05-09T01:03:08.237Z,75.67
2024-05-09T01:05:35.708Z,75.04
2024-05-09T01:08:03.370Z,76.04
2024-05-09T01:10:34.582Z,75.93
2024-05-09T01:13:06.198Z,75.14
2024-05-09T01:15:34.320Z,75.22
2024-05-09T01:18:10.863Z,76.32
2024-05-09T01:20:42.362Z,75.48
2024-05-09T01:23:12.224Z,75.10
2024-05-09T01:25:39.824Z,75.80
2024-05-09T01:28:07.028Z,76.07
2024-05-09T01:30:36.237Z,75.00
2024-05-09T01:33:09.827Z,75.62
2024-05-09T01:35:38.802Z,75.87
2024-05-09T01:38:06.116Z,75.40
2024-05-09T01:40:37.870Z,76.22
2024-05-09T01:43:07.740Z,75.38
2024-05-09T01:45:34.766Z,76.04
2024-05-09T01:48:02.223Z,75.71
2024-05-09T01:50:37.778Z,75.37
2024-05-09T01:53:12.061Z,76.17
2024-05-09T01:55:39.122Z,75.97
2024-05-09T01:58:06.200Z,75.90
2024-05-09T02:00:40.614Z,75.99
2024-05-09T02:03:12.316Z,76.33
2024-05-09T02:05:42.489Z,76.40
2024-05-09T02:08:15.002Z,76.05
2024-05-09T02:10:41.863Z,75.57
2024-05-09T02:13:08.564Z,75.40
2024-05-09T02:15:35.263Z,75.75
2024-05-09T02:18:02.338Z,76.38
2024-05-09T02:20:35.576Z,75.84
2024-05-09T02:23:05.220Z,75.72
2024-05-09T02:25:32.806Z,75.98
2024-05-09T02:27:59.670Z,76.67
2024-05-09T02:30:36.196Z,75.50
2024-05-09T02:33:08.064Z,75.53
2024-05-09T02:35:35.442Z,76.67
2024-05-09T02:38:02.290Z,76.20
2024-05-09T02:40:36.481Z,76.33
2024-05-09T02:43:06.269Z,76.60
2024-05-09T02:45:33.192Z,75.77
2024-05-09T02:48:00.513Z,75.49
2024-05-09T02:50:34.558Z,75.83
2024-05-09T02:53:06.051Z,75.87
2024-05-09T02:55:33.040Z,76.59
2024-05-09T02:57:59.869Z,76.63
2024-05-09T03:00:34.836Z,75.58
2024-05-09T03:03:11.786Z,75.95
2024-05-09T03:05:40.992Z,75.36
2024-05-09T03:08:08.077Z,75.89
2024-05-09T03:10:37.134Z,76.51
2024-05-09T03:13:07.075Z,76.11
2024-05-09T03:15:33.768Z,75.56
2024-05-09T03:18:00.885Z,75.97
2024-05-09T03:20:33.514Z,76.30
2024-05-09T03:23:02.408Z,76.51
2024-05-09T03:25:29.155Z,76.21
2024-05-09T03:27:55.791Z,75.82
2024-05-09T03:30:35.817Z,75.58
2024-05-09T03:33:15.275Z,76.25
2024-05-09T03:35:46.103Z,76.20
2024-05-09T03:38:13.022Z,75.72
2024-05-09T03:40:47.180Z,76.48
2024-05-09T03:43:14.442Z,76.21
2024-05-09T03:45:42.665Z,76.57
2024-05-09T03:48:09.519Z,76.07
2024-05-09T03:50:37.136Z,76.50
2024-05-09T03:53:04.699Z,76.61
2024-05-09T03:55:31.548Z,76.67
2024-05-09T03:57:58.247Z,77.27
2024-05-09T04:00:31.534Z,76.81
2024-05-09T04:03:06.112Z,77.02
2024-05-09T04:05:35.310Z,76.88
2024-05-09T04:08:02.341Z,77.18
2024-05-09T04:10:33.503Z,76.28
2024-05-09T04:13:01.942Z,76.82
2024-05-09T04:15:28.838Z,78.02
2024-05-09T04:17:55.820Z,77.90
2024-05-09T04:20:33.121Z,77.89
2024-05-09T04:23:06.357Z,77.83
2024-05-09T04:25:33.449Z,77.59
2024-05-09T04:28:00.076Z,77.83
2024-05-09T04:30:36.019Z,77.52
2024-05-09T04:33:07.115Z,78.36
2024-05-09T04:35:35.347Z,77.91
2024-05-09T04:38:02.310Z,77.89
2024-05-09T04:40:33.946Z,77.54
2024-05-09T04:43:03.927Z,77.58
2024-05-09T04:45:30.796Z,77.56
2024-05-09T04:47:57.845Z,76.63
2024-05-09T04:50:33.208Z,76.62
2024-05-09T04:53:04.132Z,75.99
2024-05-09T04:55:31.289Z,75.30
2024-05-09T04:58:00.705Z,76.00
2024-05-09T05:00:35.217Z,76.33
2024-05-09T05:03:10.421Z,75.96
2024-05-09T05:05:42.654Z,76.66
2024-05-09T05:08:17.934Z,76.65
2024-05-09T05:10:46.452Z,76.45
2024-05-09T05:13:20.610Z,75.93
2024-05-09T05:16:08.302Z,76.24
2024-05-09T05:18:34.975Z,75.90
2024-05-09T05:21:01.764Z,75.71
2024-05-09T05:23:28.540Z,76.59
2024-05-09T05:25:55.578Z,76.73
2024-05-09T05:28:22.892Z,76.96
2024-05-09T05:30:49.756Z,77.06
2024-05-09T05:33:20.030Z,75.89
2024-05-09T05:35:47.078Z,67.62
2024-05-09T05:38:14.494Z,60.13
2024-05-09T05:40:41.473Z,55.55
2024-05-09T05:43:17.626Z,52.50
2024-05-09T05:45:44.750Z,49.34
2024-05-09T05:48:13.157Z,47.38
2024-05-09T05:50:40.953Z,45.16
2024-05-09T05:53:08.880Z,43.40
2024-05-09T05:55:37.265Z,41.52
2024-05-09T05:58:04.058Z,40.43
2024-05-09T06:00:38.100Z,40.18
2024-05-09T06:03:07.349Z,39.24
2024-05-09T06:05:35.266Z,38.09
2024-05-09T06:08:02.050Z,37.88
2024-05-09T06:10:37.442Z,35.60
2024-05-09T06:13:06.997Z,35.28
2024-05-09T06:15:33.727Z,34.51
2024-05-09T06:18:00.652Z,34.54
2024-05-09T06:20:34.940Z,34.62
2024-05-09T06:23:04.778Z,34.48
2024-05-09T06:25:35.747Z,39.42
2024-05-09T06:28:02.625Z,46.53
2024-05-09T06:30:37.890Z,50.61
2024-05-09T06:33:09.246Z,51.86
2024-05-09T06:35:37.285Z,53.87
2024-05-09T06:38:04.521Z,53.69
2024-05-09T06:40:37.319Z,54.19
2024-05-09T06:43:11.532Z,55.49
2024-05-09T06:45:40.718Z,56.89
2024-05-09T06:48:09.116Z,56.85
2024-05-09T06:50:38.294Z,57.57
2024-05-09T06:53:07.333Z,57.50
2024-05-09T06:55:34.124Z,58.17
2024-05-09T06:58:00.809Z,57.30
2024-05-09T07:00:35.296Z,56.97
2024-05-09T07:03:17.879Z,56.56
2024-05-09T07:05:47.241Z,56.90
2024-05-09T07:08:15.314Z,55.77
2024-05-09T07:10:42.092Z,56.23
2024-05-09T07:13:13.651Z,55.11
2024-05-09T07:15:42.711Z,54.37
2024-05-09T07:18:11.750Z,55.08
2024-05-09T07:20:40.160Z,53.16
2024-05-09T07:23:10.449Z,55.07
2024-05-09T07:25:37.435Z,55.32
2024-05-09T07:28:04.397Z,53.96
2024-05-09T07:30:34.167Z,54.47
2024-05-09T07:33:06.823Z,52.89
2024-05-09T07:35:33.720Z,52.69
2024-05-09T07:38:00.555Z,55.13
2024-05-09T07:40:34.907Z,53.13
2024-05-09T07:43:04.513Z,52.52
2024-05-09T07:45:47.982Z,53.37
2024-05-09T07:52:39.149Z,53.14
2024-05-09T07:53:50.631Z,52.42
2024-05-09T07:56:22.421Z,53.49
2024-05-09T07:58:51.848Z,52.99
2024-05-09T08:01:20.914Z,50.78
2024-05-09T08:03:49.369Z,51.61
2024-05-09T08:06:16.076Z,51.56
2024-05-09T08:08:42.683Z,50.79
2024-05-09T08:11:09.321Z,51.07
2024-05-09T08:13:36.017Z,51.52
2024-05-09T08:16:04.724Z,50.57
2024-05-09T08:18:31.726Z,51.07
2024-05-09T08:21:00.660Z,49.12
2024-05-09T08:23:28.552Z,50.10
2024-05-09T08:25:55.202Z,51.20
2024-05-09T08:28:21.883Z,49.13
2024-05-09T08:30:48.793Z,50.26
2024-05-09T08:33:15.687Z,51.18
2024-05-09T08:35:42.441Z,50.73
2024-05-09T08:38:09.254Z,51.59
2024-05-09T08:40:37.771Z,49.71
2024-05-09T08:43:12.478Z,49.10
2024-05-09T08:45:44.083Z,48.85
2024-05-09T08:48:12.479Z,48.13
2024-05-09T08:50:41.444Z,46.69
2024-05-09T08:53:09.038Z,45.60
2024-05-09T08:55:40.318Z,44.86
2024-05-09T08:58:12.538Z,46.53
2024-05-09T09:00:41.980Z,45.82
2024-05-09T09:03:11.525Z,46.70
2024-05-09T09:05:40.090Z,47.50
2024-05-09T09:08:10.910Z,46.93
2024-05-09T09:10:42.206Z,47.14
2024-05-09T09:13:11.056Z,46.60
2024-05-09T09:15:48.071Z,48.23
2024-05-09T09:18:15.495Z,49.15
2024-05-09T09:20:42.663Z,48.09
2024-05-09T09:23:09.480Z,46.90
2024-05-09T09:25:39.833Z,47.13
2024-05-09T09:28:07.632Z,46.04
2024-05-09T09:30:37.554Z,46.11
2024-05-09T09:33:12.105Z,43.44
2024-05-09T09:35:42.007Z,43.58
2024-05-09T09:38:10.655Z,44.85
2024-05-09T09:40:44.795Z,46.94
2024-05-09T09:43:19.543Z,47.60
2024-05-09T09:45:49.951Z,49.08
2024-05-09T09:48:17.323Z,49.22
2024-05-09T09:50:45.402Z,48.47
2024-05-09T09:53:13.551Z,47.59
2024-05-09T09:55:40.522Z,48.41
2024-05-09T09:58:09.693Z,46.82
2024-05-09T10:00:42.425Z,46.92
2024-05-09T10:03:09.452Z,47.08
2024-05-09T10:05:37.247Z,47.66
2024-05-09T10:08:08.200Z,47.63
2024-05-09T10:10:36.042Z,46.73
2024-05-09T10:13:04.363Z,45.50
2024-05-09T10:15:52.641Z,44.90
2024-05-09T10:18:28.204Z,44.02
2024-05-09T10:20:58.018Z,44.59
2024-05-09T10:23:29.293Z,42.47
2024-05-09T10:25:59.938Z,43.26
2024-05-09T10:28:33.533Z,44.19
2024-05-09T10:31:10.783Z,43.32
2024-05-09T10:33:48.717Z,42.16
2024-05-09T10:36:22.340Z,43.88
2024-05-09T10:38:49.958Z,39.36
2024-05-09T10:41:17.700Z,39.72
2024-05-09T10:43:44.591Z,40.17
2024-05-09T10:46:11.950Z,39.93
2024-05-09T10:48:39.764Z,40.25
2024-05-09T10:51:06.833Z,40.54
2024-05-09T10:53:43.580Z,41.79
2024-05-09T10:56:11.048Z,41.38
2024-05-09T10:58:37.817Z,41.55
2024-05-09T11:01:07.386Z,40.97
2024-05-09T11:03:35.504Z,41.46
2024-05-09T11:06:02.848Z,42.50
2024-05-09T11:08:31.855Z,42.14
2024-05-09T11:10:59.597Z,43.08
2024-05-09T11:13:30.904Z,43.03
2024-05-09T11:15:59.191Z,42.86
2024-05-09T11:18:30.416Z,42.81
2024-05-09T11:20:59.922Z,43.22
2024-05-09T11:23:30.109Z,42.22
2024-05-09T11:25:59.692Z,42.47
2024-05-09T11:28:28.804Z,41.60
2024-05-09T11:31:07.242Z,42.16
2024-05-09T11:33:39.926Z,42.59
2024-05-09T11:36:08.028Z,40.85
2024-05-09T11:38:35.075Z,42.09
2024-05-09T11:41:02.538Z,41.63
2024-05-09T11:43:29.270Z,42.58
2024-05-09T11:45:59.268Z,42.03
2024-05-09T11:48:26.782Z,42.65
2024-05-09T11:50:55.760Z,41.32
2024-05-09T11:53:22.695Z,41.98
2024-05-09T11:55:49.547Z,42.07
2024-05-09T11:58:18.102Z,43.10
2024-05-09T12:00:45.832Z,42.17
2024-05-09T12:03:14.011Z,41.44
2024-05-09T12:05:41.088Z,41.84
2024-05-09T12:08:08.063Z,41.95
2024-05-09T12:10:36.468Z,41.25
2024-05-09T12:13:05.990Z,42.02
2024-05-09T12:15:37.018Z,42.04
2024-05-09T12:18:04.981Z,42.62
2024-05-09T12:20:37.430Z,43.01
2024-05-09T12:23:07.884Z,42.62
2024-05-09T12:25:36.922Z,43.09
2024-05-09T12:28:04.145Z,44.04
2024-05-09T12:30:36.774Z,43.17
2024-05-09T12:33:11.961Z,42.76
2024-05-09T12:35:39.653Z,42.86
2024-05-09T12:38:06.334Z,42.63
2024-05-09T12:40:38.343Z,43.23
2024-05-09T12:43:08.466Z,43.22
2024-05-09T12:45:36.562Z,44.08
2024-05-09T12:48:04.637Z,43.89
2024-05-09T12:50:33.528Z,42.09
2024-05-09T12:53:03.880Z,42.33
2024-05-09T12:55:37.704Z,43.02
2024-05-09T12:58:11.982Z,42.64
2024-05-09T13:00:39.085Z,42.12
2024-05-09T13:03:06.263Z,42.04
2024-05-09T13:05:33.043Z,40.71
2024-05-09T13:08:00.750Z,41.45
2024-05-09T13:10:32.111Z,40.69
2024-05-09T13:13:02.514Z,40.82
2024-05-09T13:15:34.616Z,41.45
2024-05-09T13:18:03.224Z,40.55
2024-05-09T13:20:34.281Z,39.73
2024-05-09T13:23:04.545Z,41.03
2024-05-09T13:25:31.826Z,40.43
2024-05-09T13:27:58.614Z,42.21
2024-05-09T13:30:38.268Z,42.86
2024-05-09T13:33:09.098Z,42.90
2024-05-09T13:35:37.380Z,42.77
2024-05-09T13:38:04.886Z,42.78
2024-05-09T13:40:34.806Z,43.70
2024-05-09T13:43:06.400Z,43.48
2024-05-09T13:45:33.951Z,43.51
2024-05-09T13:48:02.346Z,43.60
2024-05-09T13:50:35.894Z,43.43
2024-05-09T13:53:08.359Z,43.92
2024-05-09T13:55:40.920Z,44.32
2024-05-09T13:58:10.906Z,45.54
2024-05-09T14:00:47.154Z,45.50
2024-05-09T14:03:18.417Z,45.25
2024-05-09T14:05:47.474Z,45.65
2024-05-09T14:08:15.965Z,45.65
2024-05-09T14:10:46.387Z,45.58
2024-05-09T14:13:16.124Z,45.52
2024-05-09T14:15:42.984Z,44.71
2024-05-09T14:18:12.551Z,44.79
2024-05-09T14:20:40.823Z,44.38
2024-05-09T14:23:08.503Z,44.38
2024-05-09T14:25:38.883Z,44.96
2024-05-09T14:28:08.375Z,44.54
2024-05-09T14:30:37.815Z,44.64
2024-05-09T14:33:07.102Z,44.98
2024-05-09T14:35:34.720Z,44.44
2024-05-09T14:38:01.930Z,44.24
2024-05-09T14:43:01.055Z,45.66
2024-05-09T14:45:29.435Z,45.48
2024-05-09T14:47:56.819Z,46.39
2024-05-09T14:50:31.701Z,44.99
2024-05-09T14:53:01.873Z,45.11
2024-05-09T14:55:28.513Z,44.57
2024-05-09T14:57:55.581Z,44.20
2024-05-09T15:00:29.015Z,45.11
2024-05-09T15:03:00.545Z,45.04
2024-05-09T15:05:27.606Z,43.61
2024-05-09T15:07:54.361Z,44.13
2024-05-09T15:10:27.377Z,44.96
2024-05-09T15:13:01.147Z,45.03
2024-05-09T15:15:27.873Z,43.76
2024-05-09T15:17:55.202Z,43.68
2024-05-09T15:20:30.807Z,44.30
2024-05-09T15:23:02.182Z,44.72
2024-05-09T15:25:29.029Z,45.85
2024-05-09T15:27:55.900Z,45.21
2024-05-09T15:32:52.332Z,44.20
2024-05-09T15:35:20.196Z,42.88
2024-05-09T15:37:48.391Z,42.07
2024-05-09T15:40:22.266Z,40.64
2024-05-09T15:42:57.815Z,42.03
2024-05-09T15:45:24.492Z,41.27
2024-05-09T15:47:51.237Z,41.81
2024-05-09T15:50:28.114Z,41.88
2024-05-09T15:53:02.533Z,41.63
2024-05-09T15:55:36.022Z,42.77
2024-05-09T15:58:04.306Z,43.49
2024-05-09T16:00:38.020Z,43.83
2024-05-09T16:03:09.999Z,43.87
2024-05-09T16:05:37.465Z,43.26
2024-05-09T16:08:05.528Z,43.32
2024-05-09T16:10:34.109Z,43.02
2024-05-09T16:13:02.660Z,42.41
2024-05-09T16:15:30.280Z,42.63
2024-05-09T16:17:57.178Z,42.89
2024-05-09T16:22:56.751Z,42.95
2024-05-09T16:25:23.454Z,43.30
2024-05-09T16:27:51.259Z,42.33
2024-05-09T16:30:24.844Z,42.25
2024-05-09T16:32:58.375Z,42.76
2024-05-09T16:35:25.156Z,43.04
2024-05-09T16:37:51.796Z,42.76
2024-05-09T16:40:25.684Z,43.73
2024-05-09T16:43:03.426Z,44.05
2024-05-09T16:45:30.363Z,43.22
2024-05-09T16:47:57.488Z,43.78
2024-05-09T16:50:29.446Z,42.88
2024-05-09T16:53:00.223Z,42.98
2024-05-09T16:55:27.223Z,41.92
2024-05-09T16:57:54.997Z,43.07
2024-05-09T17:00:34.787Z,42.40
2024-05-09T17:03:07.928Z,44.06
2024-05-09T17:05:35.737Z,45.88
2024-05-09T17:08:03.134Z,48.43
2024-05-09T17:10:33.522Z,48.58
2024-05-09T17:13:02.391Z,49.72
2024-05-09T17:15:29.595Z,49.76
2024-05-09T17:17:56.597Z,49.74
2024-05-09T17:20:31.274Z,49.22
2024-05-09T17:23:02.438Z,49.07
2024-05-09T17:25:29.418Z,49.09
2024-05-09T17:27:56.674Z,49.21
2024-05-09T17:30:31.638Z,49.45
2024-05-09T17:33:02.299Z,48.80
2024-05-09T17:35:29.954Z,49.51
2024-05-09T17:37:56.949Z,49.08
2024-05-09T17:42:53.326Z,49.17
2024-05-09T17:45:20.643Z,48.41
2024-05-09T17:47:47.715Z,48.99
2024-05-09T17:50:21.011Z,47.53
2024-05-09T17:52:53.762Z,48.70
2024-05-09T17:55:21.306Z,48.82
2024-05-09T17:57:48.176Z,50.37
2024-05-09T18:00:24.792Z,49.87
2024-05-09T18:03:00.804Z,50.70
2024-05-09T18:05:29.095Z,52.39
2024-05-09T18:07:57.029Z,52.46
2024-05-09T18:10:32.802Z,53.99
2024-05-09T18:13:03.747Z,53.59
2024-05-09T18:15:30.670Z,53.79
2024-05-09T18:17:57.818Z,54.87
2024-05-09T18:20:33.106Z,54.86
2024-05-09T18:23:08.064Z,54.76
2024-05-09T18:25:35.047Z,54.93
2024-05-09T18:28:03.183Z,55.86
2024-05-09T18:30:34.822Z,55.25
2024-05-09T18:33:07.646Z,55.00
2024-05-09T18:35:35.231Z,55.27
2024-05-09T18:38:02.269Z,55.51
2024-05-09T18:40:34.343Z,55.58
2024-05-09T18:43:05.847Z,56.28
2024-05-09T18:45:34.037Z,55.46
2024-05-09T18:48:01.236Z,55.94
2024-05-09T18:50:34.540Z,56.25
2024-05-09T18:53:08.949Z,56.52
2024-05-09T18:55:39.638Z,56.35
2024-05-09T18:58:06.888Z,57.52
2024-05-09T19:00:37.312Z,57.87
2024-05-09T19:03:09.629Z,57.27
2024-05-09T19:05:38.860Z,57.37
2024-05-09T19:08:06.316Z,58.34
2024-05-09T19:10:35.036Z,58.95
2024-05-09T19:13:09.063Z,57.97
2024-05-09T19:15:39.488Z,58.56
2024-05-09T19:18:07.043Z,59.56
2024-05-09T19:20:35.762Z,59.75
2024-05-09T19:23:04.713Z,59.60
2024-05-09T19:25:32.117Z,60.28
2024-05-09T19:28:01.639Z,60.38
2024-05-09T19:30:38.578Z,61.18
2024-05-09T19:33:08.921Z,61.42
2024-05-09T19:35:35.955Z,61.22
2024-05-09T19:38:02.962Z,61.32
2024-05-09T19:40:32.360Z,62.11
2024-05-09T19:43:05.465Z,62.60
2024-05-09T19:45:34.106Z,62.56
2024-05-09T19:48:01.960Z,61.86
2024-05-09T19:50:37.059Z,63.06
2024-05-09T19:53:09.236Z,62.66
2024-05-09T19:55:36.116Z,63.75
2024-05-09T19:58:05.306Z,62.99
2024-05-09T20:00:39.901Z,64.61
2024-05-09T20:03:09.656Z,64.13
2024-05-09T20:05:37.607Z,63.67
2024-05-09T20:08:05.266Z,64.99
2024-05-09T20:10:34.277Z,64.15
2024-05-09T20:13:02.859Z,64.62
2024-05-09T20:15:30.107Z,63.81
2024-05-09T20:17:59.807Z,63.93
2024-05-09T20:20:33.587Z,65.68
2024-05-09T20:23:05.458Z,63.90
2024-05-09T20:25:32.102Z,64.60
2024-05-09T20:27:58.859Z,64.81
2024-05-09T20:30:31.694Z,65.30
2024-05-09T20:33:00.574Z,65.44
2024-05-09T20:35:30.457Z,65.80
2024-05-09T20:37:57.209Z,66.03
2024-05-09T20:40:29.247Z,66.49
2024-05-09T20:43:00.354Z,66.61
2024-05-09T20:45:27.235Z,65.82
2024-05-09T20:47:54.187Z,66.76
2024-05-09T20:50:29.012Z,65.83
2024-05-09T20:53:03.731Z,66.96
2024-05-09T20:55:30.550Z,67.15
2024-05-09T20:57:57.858Z,66.58
2024-05-09T21:00:34.369Z,66.63
2024-05-09T21:03:06.815Z,66.22
2024-05-09T21:05:34.624Z,67.30
2024-05-09T21:08:01.787Z,67.39
2024-05-09T21:10:32.712Z,66.42
2024-05-09T21:13:01.042Z,67.80
2024-05-09T21:15:35.978Z,67.11
2024-05-09T21:18:03.235Z,67.98
2024-05-09T21:20:32.788Z,67.72
2024-05-09T21:23:02.018Z,67.89
2024-05-09T21:25:29.340Z,67.86
2024-05-09T21:27:56.084Z,68.16
2024-05-09T21:30:32.422Z,67.92
2024-05-09T21:33:08.608Z,68.28
2024-05-09T21:35:35.996Z,68.13
2024-05-09T21:38:02.692Z,68.78
2024-05-09T21:40:34.331Z,68.56
2024-05-09T21:43:05.611Z,69.33
2024-05-09T21:45:33.075Z,69.35
2024-05-09T21:47:59.958Z,69.45
2024-05-09T21:50:35.461Z,69.29
2024-05-09T21:53:06.704Z,69.12
2024-05-09T21:55:33.825Z,70.14
2024-05-09T21:58:00.695Z,69.73
2024-05-09T22:00:34.773Z,70.28
2024-05-09T22:03:05.144Z,70.57
2024-05-09T22:05:32.410Z,69.80
2024-05-09T22:07:59.116Z,69.73
2024-05-09T22:10:33.768Z,69.41
2024-05-09T22:13:02.921Z,69.37
2024-05-09T22:15:29.604Z,69.85
2024-05-09T22:17:57.257Z,68.85
2024-05-09T22:20:33.111Z,68.70
2024-05-09T22:23:04.233Z,69.84
2024-05-09T22:25:32.296Z,69.65
2024-05-09T22:28:00.135Z,69.53
2024-05-09T22:30:34.642Z,69.54
2024-05-09T22:33:05.873Z,69.91
2024-05-09T22:35:32.923Z,70.39
2024-05-09T22:37:59.817Z,70.94
2024-05-09T22:40:38.167Z,70.66
2024-05-09T22:43:13.033Z,70.60
2024-05-09T22:45:39.855Z,70.56
2024-05-09T22:48:07.986Z,70.40
2024-05-09T22:50:34.903Z,71.10
2024-05-09T22:53:01.655Z,71.10
2024-05-09T22:55:28.365Z,71.03
2024-05-09T22:57:55.100Z,70.85
2024-05-09T23:00:30.758Z,70.57
2024-05-09T23:03:00.036Z,71.17
2024-05-09T23:05:27.065Z,70.86
2024-05-09T23:07:53.815Z,70.96
2024-05-09T23:10:27.765Z,71.59
2024-05-09T23:12:59.195Z,70.89
2024-05-09T23:15:26.901Z,71.53
2024-05-09T23:17:53.659Z,72.05
2024-05-09T23:20:29.926Z,71.82
2024-05-09T23:23:03.618Z,71.82
2024-05-09T23:25:30.309Z,71.90
2024-05-09T23:27:57.149Z,71.85
2024-05-09T23:30:33.332Z,72.13
2024-05-09T23:33:05.335Z,72.20
2024-05-09T23:35:32.290Z,71.97
2024-05-09T23:37:58.871Z,71.56
2024-05-09T23:40:36.870Z,71.57
2024-05-09T23:43:07.397Z,72.08
2024-05-09T23:45:34.587Z,72.23
2024-05-09T23:48:01.707Z,72.16
2024-05-09T23:50:35.508Z,71.94
2024-05-09T23:53:05.697Z,72.05
2024-05-09T23:55:32.975Z,72.28
2024-05-09T23:58:00.218Z,72.59
